sensor_id;sensor_type;location;lat;lon;timestamp;temperature;humidity
69715;HTU21D;56981;53.532;49.398;2023-07-29T00:02:09;26.81;54.12
69715;HTU21D;56981;53.532;49.398;2023-07-29T00:04:35;26.78;53.83
69715;HTU21D;56981;53.532;49.398;2023-07-29T00:07:01;26.77;53.98
69715;HTU21D;56981;53.532;49.398;2023-07-29T00:09:28;26.77;54.04
69715;HTU21D;56981;53.532;49.398;2023-07-29T00:11:53;26.73;54.21
69715;HTU21D;56981;53.532;49.398;2023-07-29T00:14:19;26.72;54.24
69715;HTU21D;56981;53.532;49.398;2023-07-29T00:16:45;26.70;54.30
69715;HTU21D;56981;53.532;49.398;2023-07-29T00:19:12;26.66;54.59
69715;HTU21D;56981;53.532;49.398;2023-07-29T00:21:38;26.62;53.88
69715;HTU21D;56981;53.532;49.398;2023-07-29T00:24:04;26.63;54.14
69715;HTU21D;56981;53.532;49.398;2023-07-29T00:26:30;26.62;54.18
69715;HTU21D;56981;53.532;49.398;2023-07-29T00:28:56;26.60;54.11
69715;HTU21D;56981;53.532;49.398;2023-07-29T00:31:22;26.60;54.35
69715;HTU21D;56981;53.532;49.398;2023-07-29T00:33:48;26.60;54.15
69715;HTU21D;56981;53.532;49.398;2023-07-29T00:36:14;26.58;53.75
69715;HTU21D;56981;53.532;49.398;2023-07-29T00:38:40;26.60;53.92
69715;HTU21D;56981;53.532;49.398;2023-07-29T00:41:06;26.60;53.58
69715;HTU21D;56981;53.532;49.398;2023-07-29T00:43:33;26.57;53.48
69715;HTU21D;56981;53.532;49.398;2023-07-29T00:46:00;26.62;53.37
69715;HTU21D;56981;53.532;49.398;2023-07-29T00:48:26;26.65;53.04
69715;HTU21D;56981;53.532;49.398;2023-07-29T00:50:53;26.68;53.16
69715;HTU21D;56981;53.532;49.398;2023-07-29T00:53:19;26.69;52.73
69715;HTU21D;56981;53.532;49.398;2023-07-29T00:55:45;26.70;52.53
69715;HTU21D;56981;53.532;49.398;2023-07-29T00:58:12;26.73;52.30
69715;HTU21D;56981;53.532;49.398;2023-07-29T01:00:38;26.78;52.13
69715;HTU21D;56981;53.532;49.398;2023-07-29T01:03:04;26.80;51.75
69715;HTU21D;56981;53.532;49.398;2023-07-29T01:05:36;26.90;51.55
69715;HTU21D;56981;53.532;49.398;2023-07-29T01:17:01;27.22;50.25
69715;HTU21D;56981;53.532;49.398;2023-07-29T01:22:04;27.51;49.44
69715;HTU21D;56981;53.532;49.398;2023-07-29T01:24:30;27.72;48.77
69715;HTU21D;56981;53.532;49.398;2023-07-29T01:26:56;27.98;48.41
69715;HTU21D;56981;53.532;49.398;2023-07-29T01:29:21;28.28;47.46
69715;HTU21D;56981;53.532;49.398;2023-07-29T01:31:49;28.58;46.83
69715;HTU21D;56981;53.532;49.398;2023-07-29T01:34:23;28.94;45.94
69715;HTU21D;56981;53.532;49.398;2023-07-29T01:36:51;29.36;45.19
69715;HTU21D;56981;53.532;49.398;2023-07-29T01:39:21;29.62;44.59
69715;HTU21D;56981;53.532;49.398;2023-07-29T01:41:48;30.13;43.79
69715;HTU21D;56981;53.532;49.398;2023-07-29T01:44:14;30.64;42.36
69715;HTU21D;56981;53.532;49.398;2023-07-29T01:46:40;30.93;41.42
69715;HTU21D;56981;53.532;49.398;2023-07-29T01:49:06;31.29;40.78
69715;HTU21D;56981;53.532;49.398;2023-07-29T01:51:32;31.69;39.90
69715;HTU21D;56981;53.532;49.398;2023-07-29T01:53:58;31.98;39.26
69715;HTU21D;56981;53.532;49.398;2023-07-29T01:56:25;32.24;38.75
69715;HTU21D;56981;53.532;49.398;2023-07-29T01:58:51;32.57;38.22
69715;HTU21D;56981;53.532;49.398;2023-07-29T02:01:17;32.85;37.76
69715;HTU21D;56981;53.532;49.398;2023-07-29T02:03:43;33.16;36.88
69715;HTU21D;56981;53.532;49.398;2023-07-29T02:06:09;33.87;35.28
69715;HTU21D;56981;53.532;49.398;2023-07-29T02:08:35;34.41;34.44
69715;HTU21D;56981;53.532;49.398;2023-07-29T02:11:01;34.94;33.25
69715;HTU21D;56981;53.532;49.398;2023-07-29T02:13:27;35.35;32.54
69715;HTU21D;56981;53.532;49.398;2023-07-29T02:15:53;35.94;31.51
69715;HTU21D;56981;53.532;49.398;2023-07-29T02:18:19;36.12;31.64
69715;HTU21D;56981;53.532;49.398;2023-07-29T02:20:45;36.34;30.98
69715;HTU21D;56981;53.532;49.398;2023-07-29T02:23:15;36.45;30.71
69715;HTU21D;56981;53.532;49.398;2023-07-29T02:25:42;36.81;29.94
69715;HTU21D;56981;53.532;49.398;2023-07-29T02:28:08;37.16;29.49
69715;HTU21D;56981;53.532;49.398;2023-07-29T02:30:34;37.26;29.27
69715;HTU21D;56981;53.532;49.398;2023-07-29T02:33:01;37.22;29.63
69715;HTU21D;56981;53.532;49.398;2023-07-29T02:35:27;37.42;29.23
69715;HTU21D;56981;53.532;49.398;2023-07-29T02:37:53;37.19;29.22
69715;HTU21D;56981;53.532;49.398;2023-07-29T02:40:19;37.28;28.97
69715;HTU21D;56981;53.532;49.398;2023-07-29T02:42:46;37.47;29.31
69715;HTU21D;56981;53.532;49.398;2023-07-29T02:45:13;37.23;29.70
69715;HTU21D;56981;53.532;49.398;2023-07-29T02:47:39;37.60;29.27
69715;HTU21D;56981;53.532;49.398;2023-07-29T02:50:05;37.57;29.26
69715;HTU21D;56981;53.532;49.398;2023-07-29T02:52:31;37.82;29.06
69715;HTU21D;56981;53.532;49.398;2023-07-29T02:54:57;37.72;29.17
69715;HTU21D;56981;53.532;49.398;2023-07-29T02:57:28;38.19;27.90
69715;HTU21D;56981;53.532;49.398;2023-07-29T02:59:54;38.94;27.17
69715;HTU21D;56981;53.532;49.398;2023-07-29T03:02:20;38.56;27.48
69715;HTU21D;56981;53.532;49.398;2023-07-29T03:04:48;38.56;27.39
69715;HTU21D;56981;53.532;49.398;2023-07-29T03:07:14;37.95;28.44
69715;HTU21D;56981;53.532;49.398;2023-07-29T03:09:40;38.18;27.87
69715;HTU21D;56981;53.532;49.398;2023-07-29T03:12:08;37.94;28.60
69715;HTU21D;56981;53.532;49.398;2023-07-29T03:14:34;38.30;27.81
69715;HTU21D;56981;53.532;49.398;2023-07-29T03:17:03;38.88;26.68
69715;HTU21D;56981;53.532;49.398;2023-07-29T03:19:32;39.29;26.30
69715;HTU21D;56981;53.532;49.398;2023-07-29T03:21:58;39.51;26.08
69715;HTU21D;56981;53.532;49.398;2023-07-29T03:24:24;39.80;25.41
69715;HTU21D;56981;53.532;49.398;2023-07-29T03:26:50;39.39;25.61
69715;HTU21D;56981;53.532;49.398;2023-07-29T03:29:16;39.06;26.19
69715;HTU21D;56981;53.532;49.398;2023-07-29T03:31:42;39.22;26.52
69715;HTU21D;56981;53.532;49.398;2023-07-29T03:34:08;39.85;25.54
69715;HTU21D;56981;53.532;49.398;2023-07-29T03:36:36;39.77;25.52
69715;HTU21D;56981;53.532;49.398;2023-07-29T03:39:02;40.04;25.37
69715;HTU21D;56981;53.532;49.398;2023-07-29T03:41:29;40.69;24.62
69715;HTU21D;56981;53.532;49.398;2023-07-29T03:43:55;40.41;24.59
69715;HTU21D;56981;53.532;49.398;2023-07-29T03:46:21;40.06;24.61
69715;HTU21D;56981;53.532;49.398;2023-07-29T03:48:47;39.20;25.65
69715;HTU21D;56981;53.532;49.398;2023-07-29T03:51:13;39.52;25.07
69715;HTU21D;56981;53.532;49.398;2023-07-29T03:53:39;40.00;24.85
69715;HTU21D;56981;53.532;49.398;2023-07-29T03:56:05;40.69;23.92
69715;HTU21D;56981;53.532;49.398;2023-07-29T03:58:31;40.32;24.16
69715;HTU21D;56981;53.532;49.398;2023-07-29T04:00:57;40.68;23.75
69715;HTU21D;56981;53.532;49.398;2023-07-29T04:03:23;40.52;23.57
69715;HTU21D;56981;53.532;49.398;2023-07-29T04:05:49;41.36;22.37
69715;HTU21D;56981;53.532;49.398;2023-07-29T04:08:15;41.60;22.53
69715;HTU21D;56981;53.532;49.398;2023-07-29T04:10:41;41.25;22.29
69715;HTU21D;56981;53.532;49.398;2023-07-29T04:13:07;41.49;22.02
69715;HTU21D;56981;53.532;49.398;2023-07-29T04:15:33;40.75;22.76
69715;HTU21D;56981;53.532;49.398;2023-07-29T04:17:59;41.11;22.82
69715;HTU21D;56981;53.532;49.398;2023-07-29T04:20:25;41.70;21.98
69715;HTU21D;56981;53.532;49.398;2023-07-29T04:22:51;40.86;22.67
69715;HTU21D;56981;53.532;49.398;2023-07-29T04:25:18;41.62;22.43
69715;HTU21D;56981;53.532;49.398;2023-07-29T04:27:44;42.02;20.79
69715;HTU21D;56981;53.532;49.398;2023-07-29T04:30:10;41.70;21.23
69715;HTU21D;56981;53.532;49.398;2023-07-29T04:32:36;41.42;21.95
69715;HTU21D;56981;53.532;49.398;2023-07-29T04:35:03;41.25;22.72
69715;HTU21D;56981;53.532;49.398;2023-07-29T04:37:29;41.64;21.52
69715;HTU21D;56981;53.532;49.398;2023-07-29T04:39:55;41.49;21.43
69715;HTU21D;56981;53.532;49.398;2023-07-29T04:42:21;41.67;21.70
69715;HTU21D;56981;53.532;49.398;2023-07-29T04:44:47;40.88;22.40
69715;HTU21D;56981;53.532;49.398;2023-07-29T04:47:13;40.06;23.65
69715;HTU21D;56981;53.532;49.398;2023-07-29T04:49:39;39.92;24.16
69715;HTU21D;56981;53.532;49.398;2023-07-29T04:52:05;40.18;23.83
69715;HTU21D;56981;53.532;49.398;2023-07-29T04:54:31;40.75;23.66
69715;HTU21D;56981;53.532;49.398;2023-07-29T04:56:57;40.71;22.56
69715;HTU21D;56981;53.532;49.398;2023-07-29T04:59:23;41.09;22.40
69715;HTU21D;56981;53.532;49.398;2023-07-29T05:01:49;41.55;21.43
69715;HTU21D;56981;53.532;49.398;2023-07-29T05:04:15;41.20;21.57
69715;HTU21D;56981;53.532;49.398;2023-07-29T05:06:41;40.63;22.28
69715;HTU21D;56981;53.532;49.398;2023-07-29T05:09:17;40.52;22.56
69715;HTU21D;56981;53.532;49.398;2023-07-29T05:11:44;40.60;23.41
69715;HTU21D;56981;53.532;49.398;2023-07-29T05:14:16;40.69;22.50
69715;HTU21D;56981;53.532;49.398;2023-07-29T05:16:43;39.86;24.36
69715;HTU21D;56981;53.532;49.398;2023-07-29T05:19:09;39.82;23.82
69715;HTU21D;56981;53.532;49.398;2023-07-29T05:21:36;39.58;24.23
69715;HTU21D;56981;53.532;49.398;2023-07-29T05:24:03;39.56;24.96
69715;HTU21D;56981;53.532;49.398;2023-07-29T05:26:29;39.13;25.29
69715;HTU21D;56981;53.532;49.398;2023-07-29T05:28:54;39.64;24.22
69715;HTU21D;56981;53.532;49.398;2023-07-29T05:31:22;40.00;23.25
69715;HTU21D;56981;53.532;49.398;2023-07-29T05:33:48;40.30;23.08
69715;HTU21D;56981;53.532;49.398;2023-07-29T05:36:14;40.19;23.44
69715;HTU21D;56981;53.532;49.398;2023-07-29T05:38:41;40.32;22.96
69715;HTU21D;56981;53.532;49.398;2023-07-29T05:41:07;41.19;22.28
69715;HTU21D;56981;53.532;49.398;2023-07-29T05:43:33;41.44;20.99
69715;HTU21D;56981;53.532;49.398;2023-07-29T05:45:59;42.08;20.61
69715;HTU21D;56981;53.532;49.398;2023-07-29T05:48:25;42.59;19.76
69715;HTU21D;56981;53.532;49.398;2023-07-29T05:50:52;42.98;19.12
69715;HTU21D;56981;53.532;49.398;2023-07-29T05:53:18;43.44;18.70
69715;HTU21D;56981;53.532;49.398;2023-07-29T05:55:44;42.97;18.68
69715;HTU21D;56981;53.532;49.398;2023-07-29T05:58:09;42.24;19.83
69715;HTU21D;56981;53.532;49.398;2023-07-29T06:00:35;42.05;19.92
69715;HTU21D;56981;53.532;49.398;2023-07-29T06:03:01;42.43;19.25
69715;HTU21D;56981;53.532;49.398;2023-07-29T06:05:27;42.40;18.75
69715;HTU21D;56981;53.532;49.398;2023-07-29T06:07:53;42.03;20.18
69715;HTU21D;56981;53.532;49.398;2023-07-29T06:10:19;42.07;20.06
69715;HTU21D;56981;53.532;49.398;2023-07-29T06:12:46;42.25;19.63
69715;HTU21D;56981;53.532;49.398;2023-07-29T06:15:12;42.40;19.41
69715;HTU21D;56981;53.532;49.398;2023-07-29T06:17:38;43.19;19.05
69715;HTU21D;56981;53.532;49.398;2023-07-29T06:20:05;42.94;18.98
69715;HTU21D;56981;53.532;49.398;2023-07-29T06:22:31;42.79;19.72
69715;HTU21D;56981;53.532;49.398;2023-07-29T06:24:57;42.81;18.99
69715;HTU21D;56981;53.532;49.398;2023-07-29T06:27:24;42.51;19.20
69715;HTU21D;56981;53.532;49.398;2023-07-29T06:29:51;41.66;20.02
69715;HTU21D;56981;53.532;49.398;2023-07-29T06:32:17;41.19;20.43
69715;HTU21D;56981;53.532;49.398;2023-07-29T06:34:43;41.00;21.29
69715;HTU21D;56981;53.532;49.398;2023-07-29T06:37:08;41.85;19.91
69715;HTU21D;56981;53.532;49.398;2023-07-29T06:39:35;42.23;20.00
69715;HTU21D;56981;53.532;49.398;2023-07-29T06:42:01;42.34;19.65
69715;HTU21D;56981;53.532;49.398;2023-07-29T06:44:27;42.50;19.67
69715;HTU21D;56981;53.532;49.398;2023-07-29T06:46:53;42.00;19.93
69715;HTU21D;56981;53.532;49.398;2023-07-29T06:49:19;42.28;19.63
69715;HTU21D;56981;53.532;49.398;2023-07-29T06:51:45;42.09;19.80
69715;HTU21D;56981;53.532;49.398;2023-07-29T06:54:11;41.98;19.16
69715;HTU21D;56981;53.532;49.398;2023-07-29T06:56:38;42.19;19.03
69715;HTU21D;56981;53.532;49.398;2023-07-29T06:59:04;42.69;18.67
69715;HTU21D;56981;53.532;49.398;2023-07-29T07:01:30;42.57;19.16
69715;HTU21D;56981;53.532;49.398;2023-07-29T07:03:56;42.54;19.10
69715;HTU21D;56981;53.532;49.398;2023-07-29T07:06:24;42.67;18.99
69715;HTU21D;56981;53.532;49.398;2023-07-29T07:08:51;42.65;18.72
69715;HTU21D;56981;53.532;49.398;2023-07-29T07:11:18;42.69;20.38
69715;HTU21D;56981;53.532;49.398;2023-07-29T07:13:44;42.68;18.77
69715;HTU21D;56981;53.532;49.398;2023-07-29T07:16:10;42.10;19.15
69715;HTU21D;56981;53.532;49.398;2023-07-29T07:18:37;42.32;19.22
69715;HTU21D;56981;53.532;49.398;2023-07-29T07:21:03;42.09;19.34
69715;HTU21D;56981;53.532;49.398;2023-07-29T07:23:29;42.43;19.09
69715;HTU21D;56981;53.532;49.398;2023-07-29T07:25:55;42.21;19.86
69715;HTU21D;56981;53.532;49.398;2023-07-29T07:28:21;42.13;19.34
69715;HTU21D;56981;53.532;49.398;2023-07-29T07:30:47;42.31;19.40
69715;HTU21D;56981;53.532;49.398;2023-07-29T07:33:13;42.81;18.56
69715;HTU21D;56981;53.532;49.398;2023-07-29T07:35:39;42.63;18.09
69715;HTU21D;56981;53.532;49.398;2023-07-29T07:38:08;42.28;19.28
69715;HTU21D;56981;53.532;49.398;2023-07-29T07:40:38;42.29;18.56
69715;HTU21D;56981;53.532;49.398;2023-07-29T07:43:04;41.98;19.15
69715;HTU21D;56981;53.532;49.398;2023-07-29T07:45:32;41.83;19.52
69715;HTU21D;56981;53.532;49.398;2023-07-29T07:47:58;41.88;19.42
69715;HTU21D;56981;53.532;49.398;2023-07-29T07:50:24;41.43;20.23
69715;HTU21D;56981;53.532;49.398;2023-07-29T07:52:50;41.47;20.22
69715;HTU21D;56981;53.532;49.398;2023-07-29T07:55:16;41.48;20.35
69715;HTU21D;56981;53.532;49.398;2023-07-29T07:57:42;41.52;20.86
69715;HTU21D;56981;53.532;49.398;2023-07-29T08:00:08;41.44;19.99
69715;HTU21D;56981;53.532;49.398;2023-07-29T08:02:35;41.30;20.31
69715;HTU21D;56981;53.532;49.398;2023-07-29T08:05:01;41.20;20.87
69715;HTU21D;56981;53.532;49.398;2023-07-29T08:07:27;40.91;21.53
69715;HTU21D;56981;53.532;49.398;2023-07-29T08:09:53;40.63;21.90
69715;HTU21D;56981;53.532;49.398;2023-07-29T08:12:18;40.44;21.83
69715;HTU21D;56981;53.532;49.398;2023-07-29T08:14:45;40.74;21.60
69715;HTU21D;56981;53.532;49.398;2023-07-29T08:17:11;40.65;21.79
69715;HTU21D;56981;53.532;49.398;2023-07-29T08:19:37;40.62;21.45
69715;HTU21D;56981;53.532;49.398;2023-07-29T08:22:03;40.47;21.54
69715;HTU21D;56981;53.532;49.398;2023-07-29T08:24:29;40.91;21.84
69715;HTU21D;56981;53.532;49.398;2023-07-29T08:26:55;40.85;20.87
69715;HTU21D;56981;53.532;49.398;2023-07-29T08:29:21;40.57;21.51
69715;HTU21D;56981;53.532;49.398;2023-07-29T08:31:48;40.41;21.56
69715;HTU21D;56981;53.532;49.398;2023-07-29T08:34:14;40.15;21.24
69715;HTU21D;56981;53.532;49.398;2023-07-29T08:36:40;39.94;22.12
69715;HTU21D;56981;53.532;49.398;2023-07-29T08:39:06;39.98;22.57
69715;HTU21D;56981;53.532;49.398;2023-07-29T08:42:03;40.24;22.49
69715;HTU21D;56981;53.532;49.398;2023-07-29T08:44:44;40.18;22.53
69715;HTU21D;56981;53.532;49.398;2023-07-29T08:47:11;40.66;21.60
69715;HTU21D;56981;53.532;49.398;2023-07-29T08:49:40;40.37;21.66
69715;HTU21D;56981;53.532;49.398;2023-07-29T08:52:07;39.96;22.50
69715;HTU21D;56981;53.532;49.398;2023-07-29T08:54:33;39.74;23.12
69715;HTU21D;56981;53.532;49.398;2023-07-29T08:56:59;39.44;23.02
69715;HTU21D;56981;53.532;49.398;2023-07-29T08:59:26;39.15;23.59
69715;HTU21D;56981;53.532;49.398;2023-07-29T09:01:54;38.95;24.34
69715;HTU21D;56981;53.532;49.398;2023-07-29T09:04:23;38.78;24.28
69715;HTU21D;56981;53.532;49.398;2023-07-29T09:06:51;38.78;24.22
69715;HTU21D;56981;53.532;49.398;2023-07-29T09:09:17;38.96;24.05
69715;HTU21D;56981;53.532;49.398;2023-07-29T09:11:43;38.85;23.93
69715;HTU21D;56981;53.532;49.398;2023-07-29T09:14:10;38.54;23.88
69715;HTU21D;56981;53.532;49.398;2023-07-29T09:16:37;38.51;24.19
69715;HTU21D;56981;53.532;49.398;2023-07-29T09:19:03;38.49;24.52
69715;HTU21D;56981;53.532;49.398;2023-07-29T09:21:30;38.37;24.69
69715;HTU21D;56981;53.532;49.398;2023-07-29T09:23:56;38.02;24.59
69715;HTU21D;56981;53.532;49.398;2023-07-29T09:26:26;37.74;24.71
69715;HTU21D;56981;53.532;49.398;2023-07-29T09:28:56;37.78;25.19
69715;HTU21D;56981;53.532;49.398;2023-07-29T09:31:23;37.72;25.53
69715;HTU21D;56981;53.532;49.398;2023-07-29T09:33:50;37.89;25.77
69715;HTU21D;56981;53.532;49.398;2023-07-29T09:36:21;38.07;25.68
69715;HTU21D;56981;53.532;49.398;2023-07-29T09:38:48;37.69;24.33
69715;HTU21D;56981;53.532;49.398;2023-07-29T09:41:17;37.58;23.85
69715;HTU21D;56981;53.532;49.398;2023-07-29T09:43:43;37.51;24.25
69715;HTU21D;56981;53.532;49.398;2023-07-29T09:46:09;37.40;24.78
69715;HTU21D;56981;53.532;49.398;2023-07-29T09:48:38;37.31;25.91
69715;HTU21D;56981;53.532;49.398;2023-07-29T09:51:11;37.31;26.17
69715;HTU21D;56981;53.532;49.398;2023-07-29T09:53:43;37.32;26.05
69715;HTU21D;56981;53.532;49.398;2023-07-29T09:56:10;37.38;25.97
69715;HTU21D;56981;53.532;49.398;2023-07-29T09:58:36;37.45;25.65
69715;HTU21D;56981;53.532;49.398;2023-07-29T10:01:07;37.49;26.31
69715;HTU21D;56981;53.532;49.398;2023-07-29T10:03:36;37.64;26.14
69715;HTU21D;56981;53.532;49.398;2023-07-29T10:06:04;37.63;26.18
69715;HTU21D;56981;53.532;49.398;2023-07-29T10:08:31;37.77;25.60
69715;HTU21D;56981;53.532;49.398;2023-07-29T10:11:06;37.74;25.84
69715;HTU21D;56981;53.532;49.398;2023-07-29T10:13:33;37.64;26.32
69715;HTU21D;56981;53.532;49.398;2023-07-29T10:16:00;37.72;26.07
69715;HTU21D;56981;53.532;49.398;2023-07-29T10:18:30;37.71;25.95
69715;HTU21D;56981;53.532;49.398;2023-07-29T10:20:58;37.89;26.07
69715;HTU21D;56981;53.532;49.398;2023-07-29T10:23:25;38.19;24.85
69715;HTU21D;56981;53.532;49.398;2023-07-29T10:26:00;38.29;24.50
69715;HTU21D;56981;53.532;49.398;2023-07-29T10:28:30;38.20;24.17
69715;HTU21D;56981;53.532;49.398;2023-07-29T10:30:57;38.20;24.53
69715;HTU21D;56981;53.532;49.398;2023-07-29T10:33:24;38.10;23.95
69715;HTU21D;56981;53.532;49.398;2023-07-29T10:35:54;37.93;24.46
69715;HTU21D;56981;53.532;49.398;2023-07-29T10:38:24;37.92;23.79
69715;HTU21D;56981;53.532;49.398;2023-07-29T10:40:52;38.07;24.06
69715;HTU21D;56981;53.532;49.398;2023-07-29T10:43:33;38.16;23.86
69715;HTU21D;56981;53.532;49.398;2023-07-29T10:48:52;38.17;24.04
69715;HTU21D;56981;53.532;49.398;2023-07-29T10:51:35;38.05;24.36
69715;HTU21D;56981;53.532;49.398;2023-07-29T10:54:11;38.09;24.04
69715;HTU21D;56981;53.532;49.398;2023-07-29T10:56:48;38.06;24.27
69715;HTU21D;56981;53.532;49.398;2023-07-29T11:02:00;37.77;23.94
69715;HTU21D;56981;53.532;49.398;2023-07-29T11:04:28;37.60;24.39
69715;HTU21D;56981;53.532;49.398;2023-07-29T11:12:36;37.67;24.39
69715;HTU21D;56981;53.532;49.398;2023-07-29T11:18:00;37.55;24.24
69715;HTU21D;56981;53.532;49.398;2023-07-29T11:20:30;37.45;23.67
69715;HTU21D;56981;53.532;49.398;2023-07-29T11:23:01;37.36;24.08
69715;HTU21D;56981;53.532;49.398;2023-07-29T11:25:29;37.42;24.45
69715;HTU21D;56981;53.532;49.398;2023-07-29T11:27:56;37.56;24.53
69715;HTU21D;56981;53.532;49.398;2023-07-29T11:30:23;37.51;24.06
69715;HTU21D;56981;53.532;49.398;2023-07-29T11:32:53;37.43;24.03
69715;HTU21D;56981;53.532;49.398;2023-07-29T11:35:19;37.42;23.98
69715;HTU21D;56981;53.532;49.398;2023-07-29T11:37:47;37.38;24.44
69715;HTU21D;56981;53.532;49.398;2023-07-29T11:40:20;37.47;24.08
69715;HTU21D;56981;53.532;49.398;2023-07-29T11:42:48;37.43;24.50
69715;HTU21D;56981;53.532;49.398;2023-07-29T11:45:16;37.37;24.21
69715;HTU21D;56981;53.532;49.398;2023-07-29T11:47:42;37.10;24.27
69715;HTU21D;56981;53.532;49.398;2023-07-29T11:50:10;36.89;24.78
69715;HTU21D;56981;53.532;49.398;2023-07-29T11:52:37;36.68;24.40
69715;HTU21D;56981;53.532;49.398;2023-07-29T11:55:04;36.53;24.22
69715;HTU21D;56981;53.532;49.398;2023-07-29T11:57:34;36.41;24.54
69715;HTU21D;56981;53.532;49.398;2023-07-29T12:00:07;36.32;24.84
69715;HTU21D;56981;53.532;49.398;2023-07-29T12:02:37;36.14;25.28
69715;HTU21D;56981;53.532;49.398;2023-07-29T12:05:08;35.98;24.64
69715;HTU21D;56981;53.532;49.398;2023-07-29T12:07:35;35.87;24.97
69715;HTU21D;56981;53.532;49.398;2023-07-29T12:10:03;35.74;25.44
69715;HTU21D;56981;53.532;49.398;2023-07-29T12:12:29;34.62;30.58
69715;HTU21D;56981;53.532;49.398;2023-07-29T12:14:55;32.59;37.61
69715;HTU21D;56981;53.532;49.398;2023-07-29T12:17:21;30.50;51.80
69715;HTU21D;56981;53.532;49.398;2023-07-29T12:19:47;28.89;56.50
69715;HTU21D;56981;53.532;49.398;2023-07-29T12:22:19;27.54;62.79
69715;HTU21D;56981;53.532;49.398;2023-07-29T12:24:46;26.52;63.63
69715;HTU21D;56981;53.532;49.398;2023-07-29T12:27:13;25.93;65.86
69715;HTU21D;56981;53.532;49.398;2023-07-29T12:29:41;25.54;69.04
69715;HTU21D;56981;53.532;49.398;2023-07-29T12:32:08;25.29;69.76
69715;HTU21D;56981;53.532;49.398;2023-07-29T12:34:35;25.13;70.53
69715;HTU21D;56981;53.532;49.398;2023-07-29T12:37:03;24.98;71.64
69715;HTU21D;56981;53.532;49.398;2023-07-29T12:39:32;24.87;74.47
69715;HTU21D;56981;53.532;49.398;2023-07-29T12:42:00;24.69;73.40
69715;HTU21D;56981;53.532;49.398;2023-07-29T12:44:29;24.66;77.54
69715;HTU21D;56981;53.532;49.398;2023-07-29T12:46:55;24.71;74.78
69715;HTU21D;56981;53.532;49.398;2023-07-29T12:49:21;24.82;70.96
69715;HTU21D;56981;53.532;49.398;2023-07-29T12:51:48;24.88;74.03
69715;HTU21D;56981;53.532;49.398;2023-07-29T12:54:14;24.94;76.98
69715;HTU21D;56981;53.532;49.398;2023-07-29T12:56:40;24.97;78.36
69715;HTU21D;56981;53.532;49.398;2023-07-29T12:59:06;24.82;80.13
69715;HTU21D;56981;53.532;49.398;2023-07-29T13:01:32;24.65;79.94
69715;HTU21D;56981;53.532;49.398;2023-07-29T13:03:58;24.61;79.52
69715;HTU21D;56981;53.532;49.398;2023-07-29T13:06:24;24.70;80.51
69715;HTU21D;56981;53.532;49.398;2023-07-29T13:08:53;24.97;80.67
69715;HTU21D;56981;53.532;49.398;2023-07-29T13:11:19;25.34;78.77
69715;HTU21D;56981;53.532;49.398;2023-07-29T13:13:45;25.45;81.23
69715;HTU21D;56981;53.532;49.398;2023-07-29T13:16:11;25.59;79.07
69715;HTU21D;56981;53.532;49.398;2023-07-29T13:18:38;25.87;75.48
69715;HTU21D;56981;53.532;49.398;2023-07-29T13:21:04;26.08;70.60
69715;HTU21D;56981;53.532;49.398;2023-07-29T13:23:30;26.24;68.75
69715;HTU21D;56981;53.532;49.398;2023-07-29T13:25:58;26.31;64.11
69715;HTU21D;56981;53.532;49.398;2023-07-29T13:28:24;26.42;68.42
69715;HTU21D;56981;53.532;49.398;2023-07-29T13:30:50;26.39;69.19
69715;HTU21D;56981;53.532;49.398;2023-07-29T13:33:16;26.43;61.99
69715;HTU21D;56981;53.532;49.398;2023-07-29T13:35:42;26.52;65.09
69715;HTU21D;56981;53.532;49.398;2023-07-29T13:38:08;26.52;59.96
69715;HTU21D;56981;53.532;49.398;2023-07-29T13:40:34;26.60;59.31
69715;HTU21D;56981;53.532;49.398;2023-07-29T13:43:01;26.60;58.25
69715;HTU21D;56981;53.532;49.398;2023-07-29T13:45:27;26.57;58.53
69715;HTU21D;56981;53.532;49.398;2023-07-29T13:47:52;26.63;57.54
69715;HTU21D;56981;53.532;49.398;2023-07-29T13:50:18;26.65;57.36
69715;HTU21D;56981;53.532;49.398;2023-07-29T13:52:46;26.65;57.87
69715;HTU21D;56981;53.532;49.398;2023-07-29T13:55:12;26.49;61.46
69715;HTU21D;56981;53.532;49.398;2023-07-29T13:57:38;26.26;62.12
69715;HTU21D;56981;53.532;49.398;2023-07-29T14:00:06;26.22;60.59
69715;HTU21D;56981;53.532;49.398;2023-07-29T14:02:32;26.25;60.67
69715;HTU21D;56981;53.532;49.398;2023-07-29T14:04:58;26.28;58.13
69715;HTU21D;56981;53.532;49.398;2023-07-29T14:07:24;26.47;56.20
69715;HTU21D;56981;53.532;49.398;2023-07-29T14:09:50;26.62;56.78
69715;HTU21D;56981;53.532;49.398;2023-07-29T14:12:16;26.72;55.70
69715;HTU21D;56981;53.532;49.398;2023-07-29T14:14:42;26.80;54.88
69715;HTU21D;56981;53.532;49.398;2023-07-29T14:17:08;26.89;55.47
69715;HTU21D;56981;53.532;49.398;2023-07-29T14:19:36;26.84;54.36
69715;HTU21D;56981;53.532;49.398;2023-07-29T14:22:03;26.89;55.99
69715;HTU21D;56981;53.532;49.398;2023-07-29T14:24:29;26.90;56.13
69715;HTU21D;56981;53.532;49.398;2023-07-29T14:26:55;26.95;56.66
69715;HTU21D;56981;53.532;49.398;2023-07-29T14:29:21;26.98;56.24
69715;HTU21D;56981;53.532;49.398;2023-07-29T14:31:47;27.01;55.87
69715;HTU21D;56981;53.532;49.398;2023-07-29T14:34:13;27.00;55.74
69715;HTU21D;56981;53.532;49.398;2023-07-29T14:36:39;27.04;55.25
69715;HTU21D;56981;53.532;49.398;2023-07-29T14:39:05;26.99;55.10
69715;HTU21D;56981;53.532;49.398;2023-07-29T14:41:31;26.94;56.67
69715;HTU21D;56981;53.532;49.398;2023-07-29T14:43:57;26.90;57.04
69715;HTU21D;56981;53.532;49.398;2023-07-29T14:46:23;26.90;56.67
69715;HTU21D;56981;53.532;49.398;2023-07-29T14:48:49;26.92;56.47
69715;HTU21D;56981;53.532;49.398;2023-07-29T14:51:15;26.92;56.44
69715;HTU21D;56981;53.532;49.398;2023-07-29T14:53:41;26.91;56.45
69715;HTU21D;56981;53.532;49.398;2023-07-29T14:56:07;26.95;56.97
69715;HTU21D;56981;53.532;49.398;2023-07-29T14:58:33;26.97;56.23
69715;HTU21D;56981;53.532;49.398;2023-07-29T15:00:59;26.95;55.68
69715;HTU21D;56981;53.532;49.398;2023-07-29T15:03:25;27.00;55.26
69715;HTU21D;56981;53.532;49.398;2023-07-29T15:05:51;27.01;53.99
69715;HTU21D;56981;53.532;49.398;2023-07-29T15:08:17;27.06;54.13
69715;HTU21D;56981;53.532;49.398;2023-07-29T15:10:46;27.05;53.48
69715;HTU21D;56981;53.532;49.398;2023-07-29T15:13:14;27.08;52.19
69715;HTU21D;56981;53.532;49.398;2023-07-29T15:15:41;27.05;53.24
69715;HTU21D;56981;53.532;49.398;2023-07-29T15:18:07;27.05;53.01
69715;HTU21D;56981;53.532;49.398;2023-07-29T15:20:33;27.04;53.38
69715;HTU21D;56981;53.532;49.398;2023-07-29T15:23:00;27.05;53.05
69715;HTU21D;56981;53.532;49.398;2023-07-29T15:25:25;27.00;53.21
69715;HTU21D;56981;53.532;49.398;2023-07-29T15:27:52;27.01;52.76